Unabara — JI3188 — position and weather

sailwx.info

Track history (hours):
 
Tides and Currents Weather Stations Pressure Air Temp Water Temp Dewpoint Dewpoint Depression Visibility Wind Speed Wind Dir Waves Ship Positions

Unabara

Last reported at 2018-Jan-12 10:34 UTC. Time now 2018-Jan-19 02:03 UTC.
Position N 34°14' E 135°08'.

Length 30 m.

Type: Tug. MMSI: 431008888.

Date/timePositionNaut miles runAvg speedWind from/ knotsBaromVisibWave heightAir tempDewpointWater temp
2018-Jan-12 10:34N 34°14' E 135°08'0 0.0
2018-Jan-12 10:28N 34°14' E 135°08'0 0.3
2018-Jan-12 09:59N 34°14' E 135°07'2 4.6
2018-Jan-12 09:30N 34°14' E 135°05'0 0.8
2018-Jan-12 08:58N 34°14' E 135°05'2 3.5
2018-Jan-12 08:28N 34°14' E 135°07'1 0.1
2018-Jan-11 23:42N 34°15' E 135°07'0 0.8
2018-Jan-11 23:11N 34°14' E 135°07'0 1.2
2018-Jan-11 23:00N 34°14' E 135°07'2 3.8
2018-Jan-11 22:28N 34°14' E 135°05'2 4.1
2018-Jan-11 21:59N 34°14' E 135°07'0 0.0
2018-Jan-11 04:27N 34°15' E 135°07'1 3.3
2018-Jan-11 04:00N 34°13' E 135°07'1 1.0
2018-Jan-11 02:40N 34°13' E 135°09'0 0.0
2018-Jan-11 02:22N 34°13' E 135°09'0 0.0
2018-Jan-11 01:55N 34°13' E 135°09'0 0.0
2018-Jan-11 01:26N 34°13' E 135°09'0 0.4
2018-Jan-11 01:00N 34°12' E 135°08'1 1.7
2018-Jan-11 00:30N 34°13' E 135°08'1 2.0
2018-Jan-10 23:59N 34°13' E 135°06'2 3.7
2018-Jan-10 23:30N 34°14' E 135°07'0 0.7
2018-Jan-10 22:58N 34°15' E 135°07'0 0.0
2018-Jan-10 22:22N 34°15' E 135°07'0 0.4
2018-Jan-10 21:43N 34°14' E 135°07'0 0.0
2018-Jan-10 11:39N 34°15' E 135°07'1 4.5
2018-Jan-10 11:28N 34°14' E 135°08'0 0.1
2018-Jan-10 10:49N 34°14' E 135°08'0 0.9
2018-Jan-10 10:30N 34°14' E 135°07'2 3.8
2018-Jan-10 10:00N 34°14' E 135°05'2 3.9
2018-Jan-10 09:30N 34°13' E 135°06'2 3.4
2018-Jan-10 08:59N 34°14' E 135°07'1 0.9
2018-Jan-10 08:09N 34°14' E 135°08'1 0.7
2018-Jan-10 06:48N 34°15' E 135°07'0 0.0
2018-Jan-10 06:06N 34°15' E 135°07'0 0.0
2018-Jan-10 05:54N 34°15' E 135°07'0 0.0
2018-Jan-10 05:24N 34°15' E 135°07'0 0.0
2018-Jan-10 03:42N 34°15' E 135°07'0 0.5
2018-Jan-10 03:18N 34°15' E 135°07'2 6.5
2018-Jan-10 02:59N 34°14' E 135°05'2 4.4
2018-Jan-10 02:28N 34°14' E 135°08'0 0.4
2018-Jan-10 02:00N 34°14' E 135°07'2 3.1
2018-Jan-10 01:29N 34°14' E 135°05'1 1.7
2018-Jan-10 00:58N 34°14' E 135°06'1 2.8
2018-Jan-10 00:31N 34°13' E 135°06'1 1.0
2018-Jan-09 23:59N 34°13' E 135°06'2 3.9
2018-Jan-09 23:29N 34°15' E 135°07'0 0.0
2018-Jan-09 21:17N 34°15' E 135°07'1 2.0
2018-Jan-09 20:58N 34°14' E 135°08'0 0.0
2018-Jan-09 00:51N 34°14' E 135°08'1 3.1
2018-Jan-09 00:30N 34°14' E 135°07'0 0.0
2018-Jan-07 04:22N 34°15' E 135°07'0 0.8
2018-Jan-07 03:59N 34°14' E 135°07'2 3.8
2018-Jan-07 03:31N 34°14' E 135°05'2 2.5
2018-Jan-07 02:54N 34°15' E 135°07'0 0.0
2018-Jan-07 02:27N 34°15' E 135°07'0 0.0
2018-Jan-07 01:57N 34°15' E 135°07'0 0.0
2018-Jan-07 01:12N 34°15' E 135°07'0 0.0
2018-Jan-06 00:04N 34°15' E 135°07'0 0.0
2018-Jan-06 00:00N 34°15' E 135°07'0 0.4
2018-Jan-05 23:06N 34°14' E 135°07'0 0.0
2018-Jan-05 22:42N 34°14' E 135°07'0 0.0
2018-Jan-05 22:30N 34°14' E 135°07'0 0.5
2018-Jan-05 21:59N 34°14' E 135°08'1 1.1
2018-Jan-05 21:29N 34°15' E 135°07'0 0.0
2018-Jan-05 02:06N 34°14' E 135°07'1 6.3
2018-Jan-05 02:00N 34°14' E 135°08'1 0.0
2018-Jan-03 06:33N 34°15' E 135°07'0 8.5
2018-Jan-03 06:29N 34°14' E 135°07'0 0.7
2018-Jan-03 05:59N 34°14' E 135°08'1 1.9
2018-Jan-03 05:27N 34°14' E 135°07'2 3.4
2018-Jan-03 05:00N 34°13' E 135°06'2 3.8
2018-Jan-03 04:27N 34°15' E 135°07'0 0.0
2018-Jan-03 03:59N 34°15' E 135°07'1 1.4
2018-Jan-03 03:30N 34°14' E 135°08'0 0.2
2018-Jan-03 02:54N 34°14' E 135°08'0 0.2
2018-Jan-03 02:26N 34°14' E 135°08'2 3.3
2018-Jan-03 01:56N 34°14' E 135°06'1 2.5
2018-Jan-03 01:30N 34°13' E 135°06'2 3.8
2018-Jan-03 01:00N 34°14' E 135°08'1 0.5
2018-Jan-02 23:42N 34°15' E 135°07'0 0.0
2018-Jan-02 23:30N 34°15' E 135°07'0 0.0
2018-Jan-02 23:00N 34°15' E 135°07'0 0.0
2018-Jan-02 22:30N 34°15' E 135°07'0 0.0
2018-Jan-02 22:00N 34°15' E 135°07'0 0.0
2018-Jan-02 21:30N 34°15' E 135°07'  
Track history (hours):
 
Tides and Currents Weather Stations Pressure Air Temp Water Temp Dewpoint Dewpoint Depression Visibility Wind Speed Wind Dir Waves Ship Positions

Unabara

Last reported at 2018-Jan-12 10:34 UTC. Time now 2018-Jan-19 02:03 UTC.
Position N 34°14' E 135°08'.

Length 30 m.

Type: Tug. MMSI: 431008888.

Date/timePositionNaut miles runAvg speedWind from/ knotsBaromVisibWave heightAir tempDewpointWater temp
2018-Jan-12 10:34N 34°14' E 135°08'0 0.0
2018-Jan-12 10:28N 34°14' E 135°08'0 0.3
2018-Jan-12 09:59N 34°14' E 135°07'2 4.6
2018-Jan-12 09:30N 34°14' E 135°05'0 0.8
2018-Jan-12 08:58N 34°14' E 135°05'2 3.5
2018-Jan-12 08:28N 34°14' E 135°07'1 0.1
2018-Jan-11 23:42N 34°15' E 135°07'0 0.8
2018-Jan-11 23:11N 34°14' E 135°07'0 1.2
2018-Jan-11 23:00N 34°14' E 135°07'2 3.8
2018-Jan-11 22:28N 34°14' E 135°05'2 4.1
2018-Jan-11 21:59N 34°14' E 135°07'0 0.0
2018-Jan-11 04:27N 34°15' E 135°07'1 3.3
2018-Jan-11 04:00N 34°13' E 135°07'1 1.0
2018-Jan-11 02:40N 34°13' E 135°09'0 0.0
2018-Jan-11 02:22N 34°13' E 135°09'0 0.0
2018-Jan-11 01:55N 34°13' E 135°09'0 0.0
2018-Jan-11 01:26N 34°13' E 135°09'0 0.4
2018-Jan-11 01:00N 34°12' E 135°08'1 1.7
2018-Jan-11 00:30N 34°13' E 135°08'1 2.0
2018-Jan-10 23:59N 34°13' E 135°06'2 3.7
2018-Jan-10 23:30N 34°14' E 135°07'0 0.7
2018-Jan-10 22:58N 34°15' E 135°07'0 0.0
2018-Jan-10 22:22N 34°15' E 135°07'0 0.4
2018-Jan-10 21:43N 34°14' E 135°07'0 0.0
2018-Jan-10 11:39N 34°15' E 135°07'1 4.5
2018-Jan-10 11:28N 34°14' E 135°08'0 0.1
2018-Jan-10 10:49N 34°14' E 135°08'0 0.9
2018-Jan-10 10:30N 34°14' E 135°07'2 3.8
2018-Jan-10 10:00N 34°14' E 135°05'2 3.9
2018-Jan-10 09:30N 34°13' E 135°06'2 3.4
2018-Jan-10 08:59N 34°14' E 135°07'1 0.9
2018-Jan-10 08:09N 34°14' E 135°08'1 0.7
2018-Jan-10 06:48N 34°15' E 135°07'0 0.0
2018-Jan-10 06:06N 34°15' E 135°07'0 0.0
2018-Jan-10 05:54N 34°15' E 135°07'0 0.0
2018-Jan-10 05:24N 34°15' E 135°07'0 0.0
2018-Jan-10 03:42N 34°15' E 135°07'0 0.5
2018-Jan-10 03:18N 34°15' E 135°07'2 6.5
2018-Jan-10 02:59N 34°14' E 135°05'2 4.4
2018-Jan-10 02:28N 34°14' E 135°08'0 0.4
2018-Jan-10 02:00N 34°14' E 135°07'2 3.1
2018-Jan-10 01:29N 34°14' E 135°05'1 1.7
2018-Jan-10 00:58N 34°14' E 135°06'1 2.8
2018-Jan-10 00:31N 34°13' E 135°06'1 1.0
2018-Jan-09 23:59N 34°13' E 135°06'2 3.9
2018-Jan-09 23:29N 34°15' E 135°07'0 0.0
2018-Jan-09 21:17N 34°15' E 135°07'1 2.0
2018-Jan-09 20:58N 34°14' E 135°08'0 0.0
2018-Jan-09 00:51N 34°14' E 135°08'1 3.1
2018-Jan-09 00:30N 34°14' E 135°07'0 0.0
2018-Jan-07 04:22N 34°15' E 135°07'0 0.8
2018-Jan-07 03:59N 34°14' E 135°07'2 3.8
2018-Jan-07 03:31N 34°14' E 135°05'2 2.5
2018-Jan-07 02:54N 34°15' E 135°07'0 0.0
2018-Jan-07 02:27N 34°15' E 135°07'0 0.0
2018-Jan-07 01:57N 34°15' E 135°07'0 0.0
2018-Jan-07 01:12N 34°15' E 135°07'0 0.0
2018-Jan-06 00:04N 34°15' E 135°07'0 0.0
2018-Jan-06 00:00N 34°15' E 135°07'0 0.4
2018-Jan-05 23:06N 34°14' E 135°07'0 0.0
2018-Jan-05 22:42N 34°14' E 135°07'0 0.0
2018-Jan-05 22:30N 34°14' E 135°07'0 0.5
2018-Jan-05 21:59N 34°14' E 135°08'1 1.1
2018-Jan-05 21:29N 34°15' E 135°07'0 0.0
2018-Jan-05 02:06N 34°14' E 135°07'1 6.3
2018-Jan-05 02:00N 34°14' E 135°08'1 0.0
2018-Jan-03 06:33N 34°15' E 135°07'0 8.5
2018-Jan-03 06:29N 34°14' E 135°07'0 0.7
2018-Jan-03 05:59N 34°14' E 135°08'1 1.9
2018-Jan-03 05:27N 34°14' E 135°07'2 3.4
2018-Jan-03 05:00N 34°13' E 135°06'2 3.8
2018-Jan-03 04:27N 34°15' E 135°07'0 0.0
2018-Jan-03 03:59N 34°15' E 135°07'1 1.4
2018-Jan-03 03:30N 34°14' E 135°08'0 0.2
2018-Jan-03 02:54N 34°14' E 135°08'0 0.2
2018-Jan-03 02:26N 34°14' E 135°08'2 3.3
2018-Jan-03 01:56N 34°14' E 135°06'1 2.5
2018-Jan-03 01:30N 34°13' E 135°06'2 3.8
2018-Jan-03 01:00N 34°14' E 135°08'1 0.5
2018-Jan-02 23:42N 34°15' E 135°07'0 0.0
2018-Jan-02 23:30N 34°15' E 135°07'0 0.0
2018-Jan-02 23:00N 34°15' E 135°07'0 0.0
2018-Jan-02 22:30N 34°15' E 135°07'0 0.0
2018-Jan-02 22:00N 34°15' E 135°07'0 0.0
2018-Jan-02 21:30N 34°15' E 135°07'  

Dump ship's entire track history